createdAt,value
2019-03-25T00:01:56.454Z,101090.61
2019-03-25T00:04:25.742Z,101085.50
2019-03-25T00:06:54.192Z,101083.73
2019-03-25T00:09:22.502Z,101079.16
2019-03-25T00:11:51.662Z,101065.75
2019-03-25T00:14:20.088Z,101074.02
2019-03-25T00:16:48.662Z,101073.49
2019-03-25T00:19:17.885Z,101062.20
2019-03-25T00:21:46.189Z,101063.59
2019-03-25T00:24:15.006Z,101062.72
2019-03-25T00:26:43.685Z,101054.22
2019-03-25T00:29:12.354Z,101051.78
2019-03-25T00:31:40.455Z,101057.01
2019-03-25T00:34:09.074Z,101059.09
2019-03-25T00:36:37.277Z,101062.11
2019-03-25T00:39:07.106Z,101057.09
2019-03-25T00:41:35.645Z,101057.66
2019-03-25T00:44:04.230Z,101051.61
2019-03-25T00:46:32.431Z,101054.73
2019-03-25T00:49:00.848Z,101052.53
2019-03-25T00:51:29.921Z,101055.88
2019-03-25T00:53:58.807Z,101049.22
2019-03-25T00:56:28.603Z,101050.86
2019-03-25T00:58:57.330Z,101048.25
2019-03-25T01:01:25.734Z,101047.03
2019-03-25T01:03:54.779Z,101052.23
2019-03-25T01:06:23.246Z,101057.08
2019-03-25T01:08:52.159Z,101058.62
2019-03-25T01:11:21.314Z,101064.17
2019-03-25T01:13:49.504Z,101061.36
2019-03-25T01:16:18.288Z,101064.23
2019-03-25T01:18:46.667Z,101063.33
2019-03-25T01:21:14.862Z,101059.69
2019-03-25T01:23:43.439Z,101058.62
2019-03-25T01:26:12.472Z,101062.19
2019-03-25T01:28:41.333Z,101052.74
2019-03-25T01:31:10.231Z,101053.36
2019-03-25T01:33:38.767Z,101050.95
2019-03-25T01:36:07.324Z,101049.09
2019-03-25T01:38:36.106Z,101048.03
2019-03-25T01:41:04.790Z,101040.31
2019-03-25T01:43:33.787Z,101037.48
2019-03-25T01:46:02.242Z,101038.75
2019-03-25T01:48:31.108Z,101035.17
2019-03-25T01:50:59.871Z,101032.09
2019-03-25T01:53:28.860Z,101023.34
2019-03-25T01:55:58.054Z,101019.58
2019-03-25T01:58:26.411Z,101025.39
2019-03-25T02:00:54.963Z,101022.05
2019-03-25T02:03:23.719Z,101017.16
2019-03-25T02:05:52.954Z,101020.20
2019-03-25T02:08:21.234Z,101008.23
2019-03-25T02:10:49.835Z,101002.77
2019-03-25T02:13:18.236Z,101010.73
2019-03-25T02:15:46.913Z,101012.69
2019-03-25T02:18:15.465Z,101002.73
2019-03-25T02:20:43.979Z,101001.36
2019-03-25T02:23:12.806Z,101005.92
2019-03-25T02:25:41.512Z,101001.55
2019-03-25T02:28:10.087Z,100989.87
2019-03-25T02:30:39.228Z,100987.61
2019-03-25T02:33:08.812Z,100993.42
2019-03-25T02:35:37.727Z,100985.59
2019-03-25T02:38:06.031Z,100994.02
2019-03-25T02:40:34.458Z,100994.20
2019-03-25T02:43:03.763Z,100998.98
2019-03-25T02:45:32.089Z,100994.97
2019-03-25T02:48:00.461Z,100989.81
2019-03-25T02:50:28.744Z,100996.14
2019-03-25T02:52:58.081Z,100988.02
2019-03-25T02:55:40.563Z,100981.95
2019-03-25T02:57:57.889Z,100975.17
2019-03-25T03:00:39.218Z,100978.90
2019-03-25T03:03:08.120Z,100981.20
2019-03-25T03:05:36.975Z,100972.88
2019-03-25T03:08:06.372Z,100977.59
2019-03-25T03:10:36.286Z,100968.09
2019-03-25T03:13:05.318Z,100966.58
2019-03-25T03:15:33.646Z,100958.14
2019-03-25T03:18:02.300Z,100953.84
2019-03-25T03:20:30.882Z,100958.23
2019-03-25T03:22:59.521Z,100957.95
2019-03-25T03:25:28.205Z,100961.06
2019-03-25T03:27:57.664Z,100954.78
2019-03-25T03:30:26.277Z,100944.11
2019-03-25T03:32:54.966Z,100945.31
2019-03-25T03:35:23.622Z,100940.19
2019-03-25T03:37:52.365Z,100934.19
2019-03-25T03:40:20.845Z,100936.45
2019-03-25T03:42:49.224Z,100928.16
2019-03-25T03:45:18.048Z,100930.19
2019-03-25T03:47:47.132Z,100920.52
2019-03-25T03:50:25.626Z,100919.55
2019-03-25T03:52:56.660Z,100918.21
2019-03-25T03:55:25.692Z,100921.91
2019-03-25T03:57:56.676Z,100916.23
2019-03-25T04:00:29.741Z,100912.00
2019-03-25T04:02:58.510Z,100920.81
2019-03-25T04:05:27.764Z,100916.38
2019-03-25T04:07:56.353Z,100911.41
2019-03-25T04:10:24.965Z,100917.66
2019-03-25T04:12:53.605Z,100906.74
2019-03-25T04:15:32.511Z,100899.09
2019-03-25T04:18:01.146Z,100907.78
2019-03-25T04:20:30.263Z,100901.84
2019-03-25T04:22:58.849Z,100898.64
2019-03-25T04:25:27.941Z,100895.70
2019-03-25T04:27:56.310Z,100896.93
2019-03-25T04:30:24.982Z,100892.30
2019-03-25T04:32:53.710Z,100888.99
2019-03-25T04:35:22.603Z,100881.37
2019-03-25T04:37:51.152Z,100883.14
2019-03-25T04:40:20.118Z,100882.30
2019-03-25T04:42:48.354Z,100887.70
2019-03-25T04:45:17.154Z,100874.24
2019-03-25T04:47:45.324Z,100875.95
2019-03-25T04:50:14.233Z,100870.34
2019-03-25T04:52:42.577Z,100871.60
2019-03-25T04:55:11.620Z,100874.44
2019-03-25T04:57:39.951Z,100861.55
2019-03-25T05:00:10.412Z,100860.91
2019-03-25T05:02:38.502Z,100861.48
2019-03-25T05:05:08.192Z,100855.70
2019-03-25T05:07:36.809Z,100862.78
2019-03-25T05:10:06.187Z,100872.70
2019-03-25T05:12:34.670Z,100864.88
2019-03-25T05:15:03.583Z,100872.03
2019-03-25T05:17:32.233Z,100866.14
2019-03-25T05:20:01.294Z,100862.66
2019-03-25T05:22:29.853Z,100873.41
2019-03-25T05:24:58.170Z,100872.86
2019-03-25T05:27:26.541Z,100870.25
2019-03-25T05:29:54.960Z,100874.59
2019-03-25T05:32:24.124Z,100867.67
2019-03-25T05:34:53.674Z,100859.41
2019-03-25T05:37:22.095Z,100857.73
2019-03-25T05:39:51.429Z,100854.78
2019-03-25T05:42:19.779Z,100852.84
2019-03-25T05:44:48.714Z,100856.73
2019-03-25T05:47:17.576Z,100854.63
2019-03-25T05:49:46.403Z,100853.47
2019-03-25T05:52:15.060Z,100848.70
2019-03-25T05:54:43.282Z,100853.52
2019-03-25T05:57:11.764Z,100859.09
2019-03-25T05:59:40.266Z,100863.47
2019-03-25T06:02:08.830Z,100861.44
2019-03-25T06:04:37.325Z,100857.57
2019-03-25T06:07:05.658Z,100857.77
2019-03-25T06:09:34.117Z,100854.86
2019-03-25T06:12:02.812Z,100861.14
2019-03-25T06:14:32.185Z,100853.77
2019-03-25T06:17:00.883Z,100849.26
2019-03-25T06:19:29.490Z,100849.17
2019-03-25T06:21:57.779Z,100833.36
2019-03-25T06:24:26.519Z,100825.69
2019-03-25T06:26:54.748Z,100831.43
2019-03-25T06:29:23.512Z,100819.43
2019-03-25T06:31:51.554Z,100811.61
2019-03-25T06:34:19.851Z,100830.19
2019-03-25T06:36:48.515Z,100835.15
2019-03-25T06:39:16.871Z,100833.44
2019-03-25T06:41:45.860Z,100826.66
2019-03-25T06:44:14.594Z,100820.96
2019-03-25T06:46:43.226Z,100840.46
2019-03-25T06:49:11.606Z,100830.44
2019-03-25T06:51:39.928Z,100843.77
2019-03-25T06:54:09.276Z,100846.52
2019-03-25T06:56:37.615Z,100846.02
2019-03-25T06:59:06.243Z,100843.59
2019-03-25T07:01:34.951Z,100848.12
2019-03-25T07:04:03.192Z,100845.55
2019-03-25T07:06:31.691Z,100840.32
2019-03-25T07:08:59.977Z,100835.03
2019-03-25T07:11:28.479Z,100833.98
2019-03-25T07:13:57.497Z,100831.54
2019-03-25T07:16:25.783Z,100835.09
2019-03-25T07:18:54.199Z,100829.06
2019-03-25T07:21:22.854Z,100830.33
2019-03-25T07:23:51.697Z,100830.05
2019-03-25T07:26:20.168Z,100830.61
2019-03-25T07:28:48.789Z,100828.08
2019-03-25T07:31:16.895Z,100843.42
2019-03-25T07:33:45.870Z,100838.83
2019-03-25T07:36:15.918Z,100847.00
2019-03-25T07:38:44.447Z,100835.22
2019-03-25T07:41:13.366Z,100840.85
2019-03-25T07:43:42.196Z,100841.38
2019-03-25T07:46:11.100Z,100849.77
2019-03-25T07:48:40.156Z,100855.61
2019-03-25T07:51:08.685Z,100851.73
2019-03-25T07:53:36.856Z,100859.38
2019-03-25T07:56:05.875Z,100856.11
2019-03-25T07:58:34.547Z,100864.28
2019-03-25T08:01:03.011Z,100869.94
2019-03-25T08:03:32.160Z,100867.20
2019-03-25T08:06:00.818Z,100872.12
2019-03-25T08:08:29.245Z,100876.39
2019-03-25T08:10:57.824Z,100873.69
2019-03-25T08:13:26.219Z,100869.69
2019-03-25T08:15:54.424Z,100876.94
2019-03-25T08:18:22.618Z,100877.64
2019-03-25T08:20:51.031Z,100871.91
2019-03-25T08:23:19.789Z,100873.27
2019-03-25T08:25:48.439Z,100871.37
2019-03-25T08:28:17.204Z,100874.47
2019-03-25T08:30:45.612Z,100881.56
2019-03-25T08:33:14.285Z,100868.29
2019-03-25T08:35:42.926Z,100874.48
2019-03-25T08:38:11.305Z,100874.03
2019-03-25T08:40:39.532Z,100873.25
2019-03-25T08:43:07.953Z,100871.89
2019-03-25T08:45:36.354Z,100869.64
2019-03-25T08:48:05.202Z,100873.42
2019-03-25T08:50:33.422Z,100876.32
2019-03-25T08:53:01.730Z,100876.63
2019-03-25T08:55:30.600Z,100879.58
2019-03-25T08:57:58.737Z,100877.83
2019-03-25T09:00:27.160Z,100877.45
2019-03-25T09:02:55.531Z,100863.27
2019-03-25T09:05:23.752Z,100868.80
2019-03-25T09:07:52.685Z,100870.89
2019-03-25T09:10:21.783Z,100868.44
2019-03-25T09:12:50.277Z,100888.44
2019-03-25T09:15:18.683Z,100884.33
2019-03-25T09:17:46.950Z,100888.45
2019-03-25T09:20:16.389Z,100880.63
2019-03-25T09:22:46.132Z,100884.47
2019-03-25T09:25:15.172Z,100874.27
2019-03-25T09:27:44.467Z,100878.56
2019-03-25T09:30:30.989Z,100869.39
2019-03-25T09:32:59.296Z,100886.83
2019-03-25T09:35:30.302Z,100870.30
2019-03-25T09:38:01.453Z,100873.48
2019-03-25T09:40:30.127Z,100865.20
2019-03-25T09:42:58.332Z,100873.05
2019-03-25T09:45:26.668Z,100850.87
2019-03-25T09:47:55.383Z,100848.59
2019-03-25T09:50:24.003Z,100853.58
2019-03-25T09:52:52.618Z,100848.10
2019-03-25T09:55:21.390Z,100852.39
2019-03-25T09:57:49.717Z,100852.52
2019-03-25T10:00:24.937Z,100847.92
2019-03-25T10:02:53.162Z,100856.70
2019-03-25T10:05:21.857Z,100827.45
2019-03-25T10:07:51.191Z,100846.33
2019-03-25T10:10:19.503Z,100837.28
2019-03-25T10:12:47.585Z,100841.79
2019-03-25T10:15:16.439Z,100853.32
2019-03-25T10:17:44.624Z,100851.42
2019-03-25T10:20:14.935Z,100852.25
2019-03-25T10:22:43.473Z,100852.81
2019-03-25T10:25:14.244Z,100844.48
2019-03-25T10:27:42.898Z,100854.72
2019-03-25T10:30:13.447Z,100866.06
2019-03-25T10:32:42.154Z,100868.55
2019-03-25T10:35:11.181Z,100862.42
2019-03-25T10:37:39.564Z,100871.48
2019-03-25T10:40:09.620Z,100873.42
2019-03-25T10:42:38.118Z,100880.29
2019-03-25T10:45:07.313Z,100891.57
2019-03-25T10:47:35.730Z,100903.16
2019-03-25T10:50:06.094Z,100905.83
2019-03-25T10:52:34.621Z,100897.61
2019-03-25T10:55:03.646Z,100903.59
2019-03-25T10:57:32.647Z,100894.81
2019-03-25T11:00:02.003Z,100887.95
2019-03-25T11:02:30.843Z,100882.06
2019-03-25T11:04:59.139Z,100886.81
2019-03-25T11:07:29.461Z,100883.52
2019-03-25T11:09:57.781Z,100871.34
2019-03-25T11:12:26.334Z,100866.48
2019-03-25T11:14:54.773Z,100869.24
2019-03-25T11:17:23.027Z,100874.14
2019-03-25T11:19:51.204Z,100870.52
2019-03-25T11:22:19.295Z,100884.47
2019-03-25T11:24:48.040Z,100880.22
2019-03-25T11:27:16.330Z,100864.55
2019-03-25T11:29:45.119Z,100868.20
2019-03-25T11:32:16.757Z,100895.95
2019-03-25T11:34:45.089Z,100884.55
2019-03-25T11:37:13.804Z,100889.74
2019-03-25T11:39:42.160Z,100889.08
2019-03-25T11:42:10.716Z,100885.63
2019-03-25T11:44:39.205Z,100877.90
2019-03-25T11:47:08.201Z,100882.44
2019-03-25T11:49:36.871Z,100869.33
2019-03-25T11:52:05.083Z,100868.82
2019-03-25T11:54:35.604Z,100873.05
2019-03-25T11:57:05.939Z,100864.79
2019-03-25T11:59:34.201Z,100876.92
2019-03-25T12:02:02.498Z,100887.07
2019-03-25T12:04:31.499Z,100886.20
2019-03-25T12:07:00.158Z,100875.64
2019-03-25T12:09:28.319Z,100869.62
2019-03-25T12:11:57.054Z,100870.84
2019-03-25T12:14:25.597Z,100861.89
2019-03-25T12:16:53.754Z,100851.05
2019-03-25T12:19:23.193Z,100867.67
2019-03-25T12:21:53.125Z,100869.12
2019-03-25T12:24:21.813Z,100866.06
2019-03-25T12:26:50.028Z,100850.05
2019-03-25T12:29:29.339Z,100868.59
2019-03-25T12:31:49.523Z,100876.75
2019-03-25T12:34:17.867Z,100859.33
2019-03-25T12:36:46.778Z,100859.03
2019-03-25T12:39:15.424Z,100878.60
2019-03-25T12:41:44.477Z,100853.74
2019-03-25T12:44:12.874Z,100861.95
2019-03-25T12:46:41.264Z,100851.61
2019-03-25T12:49:09.782Z,100852.06
2019-03-25T12:51:38.335Z,100852.19
2019-03-25T12:54:07.570Z,100856.79
2019-03-25T12:56:36.174Z,100854.63
2019-03-25T12:59:04.845Z,100853.95
2019-03-25T13:01:33.945Z,100851.19
2019-03-25T13:04:04.590Z,100854.00
2019-03-25T13:06:32.957Z,100841.72
2019-03-25T13:09:01.053Z,100855.43
2019-03-25T13:11:29.559Z,100842.72
2019-03-25T13:13:58.196Z,100849.45
2019-03-25T13:16:26.671Z,100863.30
2019-03-25T13:18:54.880Z,100872.80
2019-03-25T13:21:23.093Z,100883.15
2019-03-25T13:23:51.912Z,100905.41
2019-03-25T13:26:20.220Z,100911.05
2019-03-25T13:28:48.476Z,100912.58
2019-03-25T13:31:16.779Z,100923.26
2019-03-25T13:33:44.980Z,100921.95
2019-03-25T13:36:13.950Z,100927.08
2019-03-25T13:38:45.270Z,100928.84
2019-03-25T13:41:14.131Z,100930.05
2019-03-25T13:43:43.838Z,100930.22
2019-03-25T13:46:12.544Z,100913.34
2019-03-25T13:48:40.751Z,100916.59
2019-03-25T13:51:09.293Z,100923.86
2019-03-25T13:53:38.307Z,100924.36
2019-03-25T13:56:07.400Z,100926.85
2019-03-25T13:58:35.906Z,100935.38
2019-03-25T14:01:05.298Z,100920.63
2019-03-25T14:03:33.659Z,100942.41
2019-03-25T14:06:01.706Z,100942.02
2019-03-25T14:08:30.142Z,100947.83
2019-03-25T14:10:58.250Z,100921.02
2019-03-25T14:13:26.739Z,100930.95
2019-03-25T14:15:55.293Z,100922.63
2019-03-25T14:18:23.412Z,100918.72
2019-03-25T14:20:51.793Z,100922.34
2019-03-25T14:23:20.333Z,100916.52
2019-03-25T14:25:49.400Z,100910.33
2019-03-25T14:28:18.167Z,100909.80
2019-03-25T14:30:46.535Z,100915.74
2019-03-25T14:33:15.081Z,100911.73
2019-03-25T14:35:43.900Z,100909.97
2019-03-25T14:38:12.899Z,100908.27
2019-03-25T14:40:41.385Z,100900.25
2019-03-25T14:43:10.409Z,100908.76
2019-03-25T14:45:38.517Z,100914.30
2019-03-25T14:48:06.718Z,100923.23
2019-03-25T14:50:35.654Z,100943.69
2019-03-25T14:53:04.359Z,100936.09
2019-03-25T14:55:33.645Z,100945.69
2019-03-25T14:58:02.003Z,100935.91
2019-03-25T15:00:30.765Z,100917.27
2019-03-25T15:02:59.728Z,100925.93
2019-03-25T15:05:27.967Z,100935.55
2019-03-25T15:07:56.271Z,100923.77
2019-03-25T15:10:24.723Z,100927.50
2019-03-25T15:12:52.946Z,100934.19
2019-03-25T15:15:21.525Z,100938.47
2019-03-25T15:17:49.854Z,100944.42
2019-03-25T15:20:19.111Z,100958.64
2019-03-25T15:22:47.528Z,100968.98
2019-03-25T15:25:15.897Z,100970.09
2019-03-25T15:27:44.672Z,100966.04
2019-03-25T15:30:13.620Z,100965.66
2019-03-25T15:32:42.182Z,100965.33
2019-03-25T15:35:11.562Z,100966.92
2019-03-25T15:37:46.354Z,100962.38
2019-03-25T15:40:16.794Z,100969.27
2019-03-25T15:42:45.830Z,100968.80
2019-03-25T15:45:15.294Z,100970.30
2019-03-25T15:47:47.044Z,100977.27
2019-03-25T15:50:15.016Z,100973.16
2019-03-25T15:52:44.027Z,100978.43
2019-03-25T15:55:13.228Z,100968.67
2019-03-25T15:57:42.088Z,100974.70
2019-03-25T16:00:14.961Z,100976.34
2019-03-25T16:02:43.710Z,100984.06
2019-03-25T16:05:14.498Z,100986.22
2019-03-25T16:07:43.878Z,101001.85
2019-03-25T16:10:15.092Z,101007.35
2019-03-25T16:12:44.546Z,101006.63
2019-03-25T16:15:15.400Z,101015.43
2019-03-25T16:17:43.726Z,101018.70
2019-03-25T16:20:13.121Z,101016.69
2019-03-25T16:22:41.631Z,101023.58
2019-03-25T16:25:26.449Z,101027.03
2019-03-25T16:27:54.949Z,101044.34
2019-03-25T16:30:23.906Z,101033.71
2019-03-25T16:32:52.402Z,101040.44
2019-03-25T16:35:21.246Z,101054.61
2019-03-25T16:37:49.678Z,101064.63
2019-03-25T16:40:19.816Z,101047.09
2019-03-25T16:42:48.445Z,101049.34
2019-03-25T16:45:16.807Z,101053.33
2019-03-25T16:47:45.229Z,101055.73
2019-03-25T16:50:14.110Z,101043.39
2019-03-25T16:52:42.759Z,101057.66
2019-03-25T16:55:11.297Z,101048.50
2019-03-25T16:57:39.777Z,101052.41
2019-03-25T17:00:08.654Z,101063.44
2019-03-25T17:02:37.042Z,101062.06
2019-03-25T17:05:05.739Z,101056.55
2019-03-25T17:07:34.659Z,101064.59
2019-03-25T17:10:04.144Z,101053.61
2019-03-25T17:12:32.870Z,101051.17
2019-03-25T17:15:01.580Z,101059.98
2019-03-25T17:17:30.471Z,101061.72
2019-03-25T17:20:02.310Z,101057.52
2019-03-25T17:22:31.023Z,101078.36
2019-03-25T17:25:00.302Z,101080.33
2019-03-25T17:27:28.579Z,101070.69
2019-03-25T17:29:57.439Z,101083.46
2019-03-25T17:32:26.846Z,101096.84
2019-03-25T17:34:54.927Z,101106.12
2019-03-25T17:37:23.774Z,101110.18
2019-03-25T17:39:52.265Z,101110.16
2019-03-25T17:42:21.163Z,101113.33
2019-03-25T17:44:50.476Z,101115.16
2019-03-25T17:47:18.741Z,101114.21
2019-03-25T17:49:46.764Z,101105.05
2019-03-25T17:52:15.704Z,101109.52
2019-03-25T17:54:43.659Z,101119.39
2019-03-25T17:57:12.372Z,101121.83
2019-03-25T17:59:40.956Z,101125.31
2019-03-25T18:02:09.568Z,101134.25
2019-03-25T18:04:38.362Z,101131.69
2019-03-25T18:07:06.992Z,101134.48
2019-03-25T18:09:36.255Z,101138.77
2019-03-25T18:12:04.715Z,101150.12
2019-03-25T18:14:33.165Z,101154.53
2019-03-25T18:17:01.967Z,101171.77
2019-03-25T18:19:30.417Z,101167.06
2019-03-25T18:22:00.050Z,101174.01
2019-03-25T18:24:28.298Z,101181.12
2019-03-25T18:26:57.115Z,101182.94
2019-03-25T18:29:26.789Z,101185.45
2019-03-25T18:31:55.321Z,101194.13
2019-03-25T18:34:23.853Z,101198.46
2019-03-25T18:36:53.083Z,101204.73
2019-03-25T18:39:22.053Z,101207.52
2019-03-25T18:41:51.946Z,101222.66
2019-03-25T18:44:20.486Z,101234.94
2019-03-25T18:46:50.183Z,101231.85
2019-03-25T18:49:18.405Z,101236.25
2019-03-25T18:51:47.022Z,101236.57
2019-03-25T18:54:16.073Z,101236.25
2019-03-25T18:56:44.436Z,101237.93
2019-03-25T18:59:12.777Z,101242.06
2019-03-25T19:01:42.103Z,101239.85
2019-03-25T19:04:10.650Z,101247.20
2019-03-25T19:06:41.593Z,101254.28
2019-03-25T19:09:10.262Z,101250.13
2019-03-25T19:11:38.717Z,101254.59
2019-03-25T19:14:06.910Z,101256.67
2019-03-25T19:16:35.515Z,101260.08
2019-03-25T19:19:04.092Z,101277.44
2019-03-25T19:21:32.180Z,101273.41
2019-03-25T19:24:00.454Z,101275.17
2019-03-25T19:26:28.966Z,101281.80
2019-03-25T19:28:58.025Z,101281.96
2019-03-25T19:31:26.813Z,101288.27
2019-03-25T19:33:55.653Z,101295.20
2019-03-25T19:36:25.188Z,101289.53
2019-03-25T19:38:54.232Z,101293.39
2019-03-25T19:41:32.135Z,101307.42
2019-03-25T19:43:53.837Z,101314.14
2019-03-25T19:46:22.094Z,101323.52
2019-03-25T19:48:51.057Z,101323.61
2019-03-25T19:51:19.566Z,101320.77
2019-03-25T19:53:48.134Z,101335.08
2019-03-25T19:56:16.468Z,101337.36
2019-03-25T19:58:45.296Z,101343.97
2019-03-25T20:01:13.698Z,101343.00
2019-03-25T20:03:42.546Z,101351.05
2019-03-25T20:06:10.943Z,101349.53
2019-03-25T20:08:39.553Z,101357.83
2019-03-25T20:11:08.048Z,101362.59
2019-03-25T20:13:37.208Z,101359.01
2019-03-25T20:16:06.503Z,101364.92
2019-03-25T20:18:35.210Z,101367.41
2019-03-25T20:21:03.953Z,101381.22
2019-03-25T20:23:32.670Z,101382.56
2019-03-25T20:26:01.600Z,101381.02
2019-03-25T20:28:29.772Z,101392.69
2019-03-25T20:30:58.215Z,101390.41
2019-03-25T20:33:26.697Z,101394.29
2019-03-25T20:35:55.022Z,101396.03
2019-03-25T20:38:23.437Z,101405.14
2019-03-25T20:40:51.739Z,101410.05
2019-03-25T20:43:20.383Z,101411.22
2019-03-25T20:45:48.622Z,101413.80
2019-03-25T20:48:17.675Z,101415.05
2019-03-25T20:50:46.798Z,101422.84
2019-03-25T20:53:15.294Z,101426.09
2019-03-25T20:55:44.028Z,101434.63
2019-03-25T20:58:14.142Z,101433.85
2019-03-25T21:00:54.573Z,101431.60
2019-03-25T21:03:23.004Z,101434.96
2019-03-25T21:05:51.986Z,101438.19
2019-03-25T21:08:20.352Z,101435.48
2019-03-25T21:10:49.413Z,101441.05
2019-03-25T21:13:18.358Z,101442.92
2019-03-25T21:15:47.417Z,101444.34
2019-03-25T21:18:15.659Z,101455.64
2019-03-25T21:20:44.291Z,101459.89
2019-03-25T21:23:12.931Z,101470.92
2019-03-25T21:25:42.205Z,101470.22
2019-03-25T21:28:11.123Z,101475.92
2019-03-25T21:30:47.947Z,101472.28
2019-03-25T21:33:09.828Z,101475.52
2019-03-25T21:35:38.979Z,101481.26
2019-03-25T21:38:07.742Z,101486.50
2019-03-25T21:40:36.677Z,101481.26
2019-03-25T21:43:04.875Z,101485.33
2019-03-25T21:45:33.583Z,101491.92
2019-03-25T21:48:02.596Z,101491.13
2019-03-25T21:50:31.780Z,101500.16
2019-03-25T21:52:59.890Z,101500.39
2019-03-25T21:55:28.727Z,101511.75
2019-03-25T21:57:57.255Z,101507.58
2019-03-25T22:00:26.295Z,101517.03
2019-03-25T22:02:54.711Z,101519.29
2019-03-25T22:05:23.053Z,101521.31
2019-03-25T22:07:51.623Z,101521.48
2019-03-25T22:10:19.775Z,101519.95
2019-03-25T22:12:48.369Z,101523.33
2019-03-25T22:15:16.961Z,101524.46
2019-03-25T22:17:46.135Z,101532.92
2019-03-25T22:20:14.622Z,101533.06
2019-03-25T22:22:43.448Z,101533.44
2019-03-25T22:25:12.210Z,101529.84
2019-03-25T22:27:43.316Z,101528.13
2019-03-25T22:30:11.949Z,101532.52
2019-03-25T22:32:40.454Z,101538.21
2019-03-25T22:35:09.126Z,101540.05
2019-03-25T22:37:37.894Z,101541.44
2019-03-25T22:40:07.651Z,101539.70
2019-03-25T22:42:36.585Z,101549.52
2019-03-25T22:45:06.397Z,101539.64
2019-03-25T22:47:35.406Z,101547.04
2019-03-25T22:50:05.571Z,101554.52
2019-03-25T22:52:34.519Z,101554.98
2019-03-25T22:55:03.436Z,101555.48
2019-03-25T22:57:32.170Z,101561.05
2019-03-25T23:00:00.611Z,101552.34
2019-03-25T23:02:29.709Z,101558.47
2019-03-25T23:04:57.943Z,101565.59
2019-03-25T23:07:26.188Z,101574.42
2019-03-25T23:09:55.094Z,101562.66
2019-03-25T23:12:24.090Z,101564.54
2019-03-25T23:14:53.266Z,101563.30
2019-03-25T23:17:21.361Z,101572.17
2019-03-25T23:19:50.628Z,101572.34
2019-03-25T23:22:18.871Z,101579.13
2019-03-25T23:24:47.957Z,101576.05
2019-03-25T23:27:16.201Z,101570.28
2019-03-25T23:29:45.145Z,101574.05
2019-03-25T23:32:15.139Z,101574.42
2019-03-25T23:34:43.795Z,101568.34
2019-03-25T23:37:12.288Z,101572.55
2019-03-25T23:39:40.573Z,101570.41
2019-03-25T23:42:09.026Z,101571.44
2019-03-25T23:44:37.484Z,101565.69
2019-03-25T23:47:06.725Z,101569.06
2019-03-25T23:49:35.592Z,101568.22
2019-03-25T23:52:03.987Z,101572.95
2019-03-25T23:54:32.778Z,101575.84
2019-03-25T23:57:01.210Z,101581.73
2019-03-25T23:59:29.733Z,101587.03
